sensor_id;sensor_type;location;lat;lon;timestamp;P1;durP1;ratioP1;P2;durP2;ratioP2
70153;SDS011;57519;51.494;-2.626;2023-07-20T00:00:25;5.47;;;3.58;;
70153;SDS011;57519;51.494;-2.626;2023-07-20T00:02:51;6.63;;;3.50;;
70153;SDS011;57519;51.494;-2.626;2023-07-20T00:05:17;6.28;;;3.35;;
70153;SDS011;57519;51.494;-2.626;2023-07-20T00:07:46;6.38;;;3.50;;
70153;SDS011;57519;51.494;-2.626;2023-07-20T00:10:12;6.73;;;3.90;;
70153;SDS011;57519;51.494;-2.626;2023-07-20T00:12:38;8.55;;;4.05;;
70153;SDS011;57519;51.494;-2.626;2023-07-20T00:15:04;5.77;;;3.90;;
70153;SDS011;57519;51.494;-2.626;2023-07-20T00:17:29;4.50;;;3.60;;
70153;SDS011;57519;51.494;-2.626;2023-07-20T00:19:55;5.63;;;3.70;;
70153;SDS011;57519;51.494;-2.626;2023-07-20T00:22:20;6.10;;;3.40;;
70153;SDS011;57519;51.494;-2.626;2023-07-20T00:24:46;5.60;;;4.13;;
70153;SDS011;57519;51.494;-2.626;2023-07-20T00:27:11;5.60;;;3.57;;
70153;SDS011;57519;51.494;-2.626;2023-07-20T00:29:37;6.90;;;4.20;;
70153;SDS011;57519;51.494;-2.626;2023-07-20T00:32:02;6.25;;;3.90;;
70153;SDS011;57519;51.494;-2.626;2023-07-20T00:34:30;5.55;;;3.80;;
70153;SDS011;57519;51.494;-2.626;2023-07-20T00:36:56;5.33;;;3.57;;
70153;SDS011;57519;51.494;-2.626;2023-07-20T00:39:21;11.55;;;4.13;;
70153;SDS011;57519;51.494;-2.626;2023-07-20T00:41:47;5.03;;;3.43;;
70153;SDS011;57519;51.494;-2.626;2023-07-20T00:44:12;5.33;;;3.87;;
70153;SDS011;57519;51.494;-2.626;2023-07-20T00:46:37;6.67;;;3.87;;
70153;SDS011;57519;51.494;-2.626;2023-07-20T00:49:03;6.50;;;3.92;;
70153;SDS011;57519;51.494;-2.626;2023-07-20T00:51:29;5.30;;;3.60;;
70153;SDS011;57519;51.494;-2.626;2023-07-20T00:53:54;11.60;;;4.13;;
70153;SDS011;57519;51.494;-2.626;2023-07-20T00:56:20;6.13;;;3.73;;
70153;SDS011;57519;51.494;-2.626;2023-07-20T00:58:46;7.47;;;4.13;;
70153;SDS011;57519;51.494;-2.626;2023-07-20T01:01:12;5.27;;;3.13;;
70153;SDS011;57519;51.494;-2.626;2023-07-20T01:03:37;5.67;;;3.67;;
70153;SDS011;57519;51.494;-2.626;2023-07-20T01:11:29;4.20;;;3.17;;
70153;SDS011;57519;51.494;-2.626;2023-07-20T01:14:19;6.18;;;3.78;;
70153;SDS011;57519;51.494;-2.626;2023-07-20T01:16:45;6.57;;;4.07;;
70153;SDS011;57519;51.494;-2.626;2023-07-20T01:19:10;6.43;;;3.77;;
70153;SDS011;57519;51.494;-2.626;2023-07-20T01:21:40;6.55;;;3.67;;
70153;SDS011;57519;51.494;-2.626;2023-07-20T01:29:43;7.50;;;3.80;;
70153;SDS011;57519;51.494;-2.626;2023-07-20T01:32:20;5.50;;;4.10;;
70153;SDS011;57519;51.494;-2.626;2023-07-20T01:34:49;8.93;;;3.70;;
70153;SDS011;57519;51.494;-2.626;2023-07-20T01:37:17;5.25;;;3.72;;
70153;SDS011;57519;51.494;-2.626;2023-07-20T01:39:45;6.33;;;3.77;;
70153;SDS011;57519;51.494;-2.626;2023-07-20T01:42:11;6.20;;;4.00;;
70153;SDS011;57519;51.494;-2.626;2023-07-20T01:44:37;6.00;;;4.22;;
70153;SDS011;57519;51.494;-2.626;2023-07-20T01:47:03;6.97;;;4.65;;
70153;SDS011;57519;51.494;-2.626;2023-07-20T01:49:29;7.73;;;4.17;;
70153;SDS011;57519;51.494;-2.626;2023-07-20T01:51:54;7.10;;;3.87;;
70153;SDS011;57519;51.494;-2.626;2023-07-20T01:54:20;7.00;;;3.42;;
70153;SDS011;57519;51.494;-2.626;2023-07-20T01:56:46;5.43;;;3.40;;
70153;SDS011;57519;51.494;-2.626;2023-07-20T01:59:12;8.15;;;3.75;;
70153;SDS011;57519;51.494;-2.626;2023-07-20T02:01:37;5.03;;;3.73;;
70153;SDS011;57519;51.494;-2.626;2023-07-20T02:04:02;6.80;;;3.50;;
70153;SDS011;57519;51.494;-2.626;2023-07-20T02:06:28;7.93;;;3.80;;
70153;SDS011;57519;51.494;-2.626;2023-07-20T02:08:53;8.80;;;4.50;;
70153;SDS011;57519;51.494;-2.626;2023-07-20T02:11:19;8.80;;;4.10;;
70153;SDS011;57519;51.494;-2.626;2023-07-20T02:13:44;13.80;;;4.93;;
70153;SDS011;57519;51.494;-2.626;2023-07-20T02:16:10;7.78;;;4.25;;
70153;SDS011;57519;51.494;-2.626;2023-07-20T02:18:36;5.60;;;3.60;;
70153;SDS011;57519;51.494;-2.626;2023-07-20T02:21:01;8.07;;;4.35;;
70153;SDS011;57519;51.494;-2.626;2023-07-20T02:23:27;7.20;;;4.17;;
70153;SDS011;57519;51.494;-2.626;2023-07-20T02:25:52;6.17;;;4.00;;
70153;SDS011;57519;51.494;-2.626;2023-07-20T02:28:18;5.53;;;3.70;;
70153;SDS011;57519;51.494;-2.626;2023-07-20T02:30:43;10.55;;;4.35;;
70153;SDS011;57519;51.494;-2.626;2023-07-20T02:33:09;8.17;;;3.23;;
70153;SDS011;57519;51.494;-2.626;2023-07-20T02:35:34;5.23;;;3.90;;
70153;SDS011;57519;51.494;-2.626;2023-07-20T02:38:00;7.00;;;3.77;;
70153;SDS011;57519;51.494;-2.626;2023-07-20T02:40:25;7.35;;;4.20;;
70153;SDS011;57519;51.494;-2.626;2023-07-20T02:42:50;6.00;;;4.23;;
70153;SDS011;57519;51.494;-2.626;2023-07-20T02:45:16;8.83;;;4.10;;
70153;SDS011;57519;51.494;-2.626;2023-07-20T02:47:42;7.00;;;4.13;;
70153;SDS011;57519;51.494;-2.626;2023-07-20T02:50:07;6.30;;;3.70;;
70153;SDS011;57519;51.494;-2.626;2023-07-20T02:52:33;7.78;;;4.35;;
70153;SDS011;57519;51.494;-2.626;2023-07-20T02:54:59;13.83;;;4.40;;
70153;SDS011;57519;51.494;-2.626;2023-07-20T02:57:24;6.50;;;3.63;;
70153;SDS011;57519;51.494;-2.626;2023-07-20T02:59:50;9.03;;;4.70;;
70153;SDS011;57519;51.494;-2.626;2023-07-20T03:02:15;7.20;;;4.10;;
70153;SDS011;57519;51.494;-2.626;2023-07-20T03:04:41;6.50;;;4.17;;
70153;SDS011;57519;51.494;-2.626;2023-07-20T03:07:06;7.70;;;4.33;;
70153;SDS011;57519;51.494;-2.626;2023-07-20T03:09:32;7.35;;;4.57;;
70153;SDS011;57519;51.494;-2.626;2023-07-20T03:11:58;6.33;;;4.07;;
70153;SDS011;57519;51.494;-2.626;2023-07-20T03:14:23;7.33;;;4.47;;
70153;SDS011;57519;51.494;-2.626;2023-07-20T03:16:49;7.15;;;4.20;;
70153;SDS011;57519;51.494;-2.626;2023-07-20T03:19:14;6.30;;;4.17;;
70153;SDS011;57519;51.494;-2.626;2023-07-20T03:21:40;5.57;;;4.00;;
70153;SDS011;57519;51.494;-2.626;2023-07-20T03:24:08;6.50;;;3.88;;
70153;SDS011;57519;51.494;-2.626;2023-07-20T03:26:34;7.75;;;4.20;;
70153;SDS011;57519;51.494;-2.626;2023-07-20T03:29:00;6.23;;;3.60;;
70153;SDS011;57519;51.494;-2.626;2023-07-20T03:31:26;7.30;;;3.97;;
70153;SDS011;57519;51.494;-2.626;2023-07-20T03:33:51;8.63;;;4.03;;
70153;SDS011;57519;51.494;-2.626;2023-07-20T03:36:17;7.03;;;3.97;;
70153;SDS011;57519;51.494;-2.626;2023-07-20T03:38:42;5.93;;;3.60;;
70153;SDS011;57519;51.494;-2.626;2023-07-20T03:41:08;8.03;;;4.83;;
70153;SDS011;57519;51.494;-2.626;2023-07-20T03:43:34;8.20;;;3.85;;
70153;SDS011;57519;51.494;-2.626;2023-07-20T03:45:59;7.10;;;4.17;;
70153;SDS011;57519;51.494;-2.626;2023-07-20T03:48:25;7.35;;;4.05;;
70153;SDS011;57519;51.494;-2.626;2023-07-20T03:50:52;7.90;;;4.23;;
70153;SDS011;57519;51.494;-2.626;2023-07-20T03:53:18;6.43;;;4.30;;
70153;SDS011;57519;51.494;-2.626;2023-07-20T03:55:44;8.38;;;4.90;;
70153;SDS011;57519;51.494;-2.626;2023-07-20T03:58:11;5.35;;;3.70;;
70153;SDS011;57519;51.494;-2.626;2023-07-20T04:00:38;6.93;;;4.37;;
70153;SDS011;57519;51.494;-2.626;2023-07-20T04:03:03;7.45;;;4.60;;
70153;SDS011;57519;51.494;-2.626;2023-07-20T04:05:29;7.27;;;4.50;;
70153;SDS011;57519;51.494;-2.626;2023-07-20T04:07:55;7.53;;;4.53;;
70153;SDS011;57519;51.494;-2.626;2023-07-20T04:10:20;7.93;;;4.80;;
70153;SDS011;57519;51.494;-2.626;2023-07-20T04:12:46;7.30;;;4.00;;
70153;SDS011;57519;51.494;-2.626;2023-07-20T04:15:14;12.10;;;4.18;;
70153;SDS011;57519;51.494;-2.626;2023-07-20T04:17:40;8.50;;;3.97;;
70153;SDS011;57519;51.494;-2.626;2023-07-20T04:20:06;6.97;;;3.70;;
70153;SDS011;57519;51.494;-2.626;2023-07-20T04:22:32;7.38;;;4.05;;
70153;SDS011;57519;51.494;-2.626;2023-07-20T04:24:58;6.75;;;4.38;;
70153;SDS011;57519;51.494;-2.626;2023-07-20T04:27:23;7.93;;;4.57;;
70153;SDS011;57519;51.494;-2.626;2023-07-20T04:29:49;6.83;;;4.37;;
70153;SDS011;57519;51.494;-2.626;2023-07-20T04:32:14;7.13;;;4.20;;
70153;SDS011;57519;51.494;-2.626;2023-07-20T04:34:40;8.93;;;4.47;;
70153;SDS011;57519;51.494;-2.626;2023-07-20T04:37:05;7.00;;;3.90;;
70153;SDS011;57519;51.494;-2.626;2023-07-20T04:39:30;9.67;;;5.30;;
70153;SDS011;57519;51.494;-2.626;2023-07-20T04:41:56;6.90;;;3.87;;
70153;SDS011;57519;51.494;-2.626;2023-07-20T04:44:22;7.47;;;4.40;;
70153;SDS011;57519;51.494;-2.626;2023-07-20T04:46:47;7.93;;;4.00;;
70153;SDS011;57519;51.494;-2.626;2023-07-20T04:49:13;8.60;;;4.68;;
70153;SDS011;57519;51.494;-2.626;2023-07-20T04:51:39;6.83;;;4.10;;
70153;SDS011;57519;51.494;-2.626;2023-07-20T04:54:04;6.13;;;4.20;;
70153;SDS011;57519;51.494;-2.626;2023-07-20T04:56:30;6.67;;;5.07;;
70153;SDS011;57519;51.494;-2.626;2023-07-20T04:58:55;8.47;;;4.33;;
70153;SDS011;57519;51.494;-2.626;2023-07-20T05:01:22;6.85;;;4.22;;
70153;SDS011;57519;51.494;-2.626;2023-07-20T05:03:47;9.27;;;4.57;;
70153;SDS011;57519;51.494;-2.626;2023-07-20T05:06:13;9.23;;;4.50;;
70153;SDS011;57519;51.494;-2.626;2023-07-20T05:08:38;6.87;;;4.37;;
70153;SDS011;57519;51.494;-2.626;2023-07-20T05:11:04;6.00;;;3.83;;
70153;SDS011;57519;51.494;-2.626;2023-07-20T05:13:29;7.73;;;4.80;;
70153;SDS011;57519;51.494;-2.626;2023-07-20T05:15:55;11.73;;;4.40;;
70153;SDS011;57519;51.494;-2.626;2023-07-20T05:18:20;7.03;;;4.40;;
70153;SDS011;57519;51.494;-2.626;2023-07-20T05:20:46;5.80;;;4.00;;
70153;SDS011;57519;51.494;-2.626;2023-07-20T05:23:12;8.25;;;4.53;;
70153;SDS011;57519;51.494;-2.626;2023-07-20T05:25:38;5.77;;;3.80;;
70153;SDS011;57519;51.494;-2.626;2023-07-20T05:28:03;6.37;;;4.00;;
70153;SDS011;57519;51.494;-2.626;2023-07-20T05:30:29;7.47;;;4.40;;
70153;SDS011;57519;51.494;-2.626;2023-07-20T05:32:54;6.67;;;4.40;;
70153;SDS011;57519;51.494;-2.626;2023-07-20T05:35:20;6.87;;;3.87;;
70153;SDS011;57519;51.494;-2.626;2023-07-20T05:37:45;6.07;;;4.20;;
70153;SDS011;57519;51.494;-2.626;2023-07-20T05:40:11;7.22;;;4.20;;
70153;SDS011;57519;51.494;-2.626;2023-07-20T05:42:38;9.67;;;4.23;;
70153;SDS011;57519;51.494;-2.626;2023-07-20T05:45:04;8.13;;;4.40;;
70153;SDS011;57519;51.494;-2.626;2023-07-20T05:47:30;7.72;;;4.70;;
70153;SDS011;57519;51.494;-2.626;2023-07-20T05:49:56;7.10;;;4.32;;
70153;SDS011;57519;51.494;-2.626;2023-07-20T05:52:21;7.37;;;4.17;;
70153;SDS011;57519;51.494;-2.626;2023-07-20T05:54:46;7.97;;;4.70;;
70153;SDS011;57519;51.494;-2.626;2023-07-20T05:57:12;8.00;;;4.40;;
70153;SDS011;57519;51.494;-2.626;2023-07-20T05:59:38;6.78;;;4.53;;
70153;SDS011;57519;51.494;-2.626;2023-07-20T06:02:05;6.40;;;4.40;;
70153;SDS011;57519;51.494;-2.626;2023-07-20T06:04:33;6.97;;;4.35;;
70153;SDS011;57519;51.494;-2.626;2023-07-20T06:06:58;5.90;;;4.03;;
70153;SDS011;57519;51.494;-2.626;2023-07-20T06:09:23;7.37;;;4.23;;
70153;SDS011;57519;51.494;-2.626;2023-07-20T06:11:49;9.27;;;4.63;;
70153;SDS011;57519;51.494;-2.626;2023-07-20T06:14:14;6.75;;;3.97;;
70153;SDS011;57519;51.494;-2.626;2023-07-20T06:16:40;7.63;;;4.07;;
70153;SDS011;57519;51.494;-2.626;2023-07-20T06:19:05;7.70;;;4.13;;
70153;SDS011;57519;51.494;-2.626;2023-07-20T06:21:31;6.43;;;4.00;;
70153;SDS011;57519;51.494;-2.626;2023-07-20T06:23:56;9.57;;;4.60;;
70153;SDS011;57519;51.494;-2.626;2023-07-20T06:26:22;11.53;;;5.07;;
70153;SDS011;57519;51.494;-2.626;2023-07-20T06:28:47;7.10;;;4.50;;
70153;SDS011;57519;51.494;-2.626;2023-07-20T06:31:13;7.82;;;4.32;;
70153;SDS011;57519;51.494;-2.626;2023-07-20T06:33:38;7.23;;;4.03;;
70153;SDS011;57519;51.494;-2.626;2023-07-20T06:36:04;8.83;;;4.83;;
70153;SDS011;57519;51.494;-2.626;2023-07-20T06:38:32;7.00;;;4.22;;
70153;SDS011;57519;51.494;-2.626;2023-07-20T06:41:00;9.57;;;4.82;;
70153;SDS011;57519;51.494;-2.626;2023-07-20T06:43:28;8.53;;;4.70;;
70153;SDS011;57519;51.494;-2.626;2023-07-20T06:45:54;9.55;;;4.40;;
70153;SDS011;57519;51.494;-2.626;2023-07-20T06:48:21;10.83;;;4.30;;
70153;SDS011;57519;51.494;-2.626;2023-07-20T06:50:47;6.55;;;3.90;;
70153;SDS011;57519;51.494;-2.626;2023-07-20T06:53:12;8.97;;;4.50;;
70153;SDS011;57519;51.494;-2.626;2023-07-20T06:55:38;7.88;;;4.88;;
70153;SDS011;57519;51.494;-2.626;2023-07-20T06:58:04;7.77;;;3.87;;
70153;SDS011;57519;51.494;-2.626;2023-07-20T07:00:29;7.53;;;4.53;;
70153;SDS011;57519;51.494;-2.626;2023-07-20T07:02:55;7.73;;;4.37;;
70153;SDS011;57519;51.494;-2.626;2023-07-20T07:05:20;8.17;;;4.03;;
70153;SDS011;57519;51.494;-2.626;2023-07-20T07:07:46;5.77;;;3.83;;
70153;SDS011;57519;51.494;-2.626;2023-07-20T07:10:11;8.68;;;4.35;;
70153;SDS011;57519;51.494;-2.626;2023-07-20T07:12:37;6.33;;;4.30;;
70153;SDS011;57519;51.494;-2.626;2023-07-20T07:15:03;7.50;;;4.90;;
70153;SDS011;57519;51.494;-2.626;2023-07-20T07:17:31;7.05;;;3.65;;
70153;SDS011;57519;51.494;-2.626;2023-07-20T07:19:57;6.20;;;3.78;;
70153;SDS011;57519;51.494;-2.626;2023-07-20T07:22:23;8.67;;;4.00;;
70153;SDS011;57519;51.494;-2.626;2023-07-20T07:24:49;6.63;;;3.47;;
70153;SDS011;57519;51.494;-2.626;2023-07-20T07:27:14;8.77;;;4.00;;
70153;SDS011;57519;51.494;-2.626;2023-07-20T07:29:41;5.78;;;3.67;;
70153;SDS011;57519;51.494;-2.626;2023-07-20T07:32:09;5.72;;;3.38;;
70153;SDS011;57519;51.494;-2.626;2023-07-20T07:34:36;5.97;;;3.90;;
70153;SDS011;57519;51.494;-2.626;2023-07-20T07:37:01;6.90;;;4.00;;
70153;SDS011;57519;51.494;-2.626;2023-07-20T07:39:27;7.27;;;4.10;;
70153;SDS011;57519;51.494;-2.626;2023-07-20T07:41:55;6.57;;;3.60;;
70153;SDS011;57519;51.494;-2.626;2023-07-20T07:44:20;9.57;;;3.95;;
70153;SDS011;57519;51.494;-2.626;2023-07-20T07:46:46;5.43;;;3.83;;
70153;SDS011;57519;51.494;-2.626;2023-07-20T07:49:12;5.75;;;3.58;;
70153;SDS011;57519;51.494;-2.626;2023-07-20T07:51:37;6.70;;;3.30;;
70153;SDS011;57519;51.494;-2.626;2023-07-20T07:54:03;4.90;;;3.00;;
70153;SDS011;57519;51.494;-2.626;2023-07-20T07:56:28;5.35;;;3.88;;
70153;SDS011;57519;51.494;-2.626;2023-07-20T07:58:54;5.27;;;3.13;;
70153;SDS011;57519;51.494;-2.626;2023-07-20T08:01:20;4.20;;;2.97;;
70153;SDS011;57519;51.494;-2.626;2023-07-20T08:03:45;4.70;;;2.70;;
70153;SDS011;57519;51.494;-2.626;2023-07-20T08:06:12;5.65;;;3.47;;
70153;SDS011;57519;51.494;-2.626;2023-07-20T08:08:41;6.15;;;3.17;;
70153;SDS011;57519;51.494;-2.626;2023-07-20T08:11:07;5.13;;;2.73;;
70153;SDS011;57519;51.494;-2.626;2023-07-20T08:13:33;4.65;;;3.15;;
70153;SDS011;57519;51.494;-2.626;2023-07-20T08:15:58;5.87;;;3.17;;
70153;SDS011;57519;51.494;-2.626;2023-07-20T08:18:23;6.53;;;3.03;;
70153;SDS011;57519;51.494;-2.626;2023-07-20T08:20:49;5.28;;;3.03;;
70153;SDS011;57519;51.494;-2.626;2023-07-20T08:23:15;7.63;;;3.70;;
70153;SDS011;57519;51.494;-2.626;2023-07-20T08:25:41;4.28;;;2.88;;
70153;SDS011;57519;51.494;-2.626;2023-07-20T08:28:13;5.38;;;3.60;;
70153;SDS011;57519;51.494;-2.626;2023-07-20T08:30:43;4.88;;;3.33;;
70153;SDS011;57519;51.494;-2.626;2023-07-20T08:33:13;4.07;;;3.07;;
70153;SDS011;57519;51.494;-2.626;2023-07-20T08:35:40;7.78;;;3.45;;
70153;SDS011;57519;51.494;-2.626;2023-07-20T08:38:06;5.43;;;3.67;;
70153;SDS011;57519;51.494;-2.626;2023-07-20T08:40:33;6.88;;;3.85;;
70153;SDS011;57519;51.494;-2.626;2023-07-20T08:42:59;5.07;;;3.40;;
70153;SDS011;57519;51.494;-2.626;2023-07-20T08:45:28;7.47;;;3.97;;
70153;SDS011;57519;51.494;-2.626;2023-07-20T08:47:58;5.47;;;3.35;;
70153;SDS011;57519;51.494;-2.626;2023-07-20T08:50:25;5.65;;;3.60;;
70153;SDS011;57519;51.494;-2.626;2023-07-20T08:52:54;7.35;;;3.80;;
70153;SDS011;57519;51.494;-2.626;2023-07-20T08:55:21;4.93;;;3.42;;
70153;SDS011;57519;51.494;-2.626;2023-07-20T08:57:49;6.53;;;4.13;;
70153;SDS011;57519;51.494;-2.626;2023-07-20T09:00:18;6.97;;;4.38;;
70153;SDS011;57519;51.494;-2.626;2023-07-20T09:02:45;6.60;;;4.03;;
70153;SDS011;57519;51.494;-2.626;2023-07-20T09:05:10;6.78;;;4.30;;
70153;SDS011;57519;51.494;-2.626;2023-07-20T09:07:38;6.97;;;3.97;;
70153;SDS011;57519;51.494;-2.626;2023-07-20T09:10:04;4.97;;;3.40;;
70153;SDS011;57519;51.494;-2.626;2023-07-20T09:12:31;7.90;;;4.05;;
70153;SDS011;57519;51.494;-2.626;2023-07-20T09:15:00;4.72;;;3.35;;
70153;SDS011;57519;51.494;-2.626;2023-07-20T09:17:26;5.70;;;3.23;;
70153;SDS011;57519;51.494;-2.626;2023-07-20T09:19:52;5.10;;;3.05;;
70153;SDS011;57519;51.494;-2.626;2023-07-20T09:22:17;7.50;;;4.00;;
70153;SDS011;57519;51.494;-2.626;2023-07-20T09:24:43;7.83;;;3.83;;
70153;SDS011;57519;51.494;-2.626;2023-07-20T09:27:09;7.65;;;4.45;;
70153;SDS011;57519;51.494;-2.626;2023-07-20T09:29:46;5.93;;;4.30;;
70153;SDS011;57519;51.494;-2.626;2023-07-20T09:32:19;9.32;;;4.35;;
70153;SDS011;57519;51.494;-2.626;2023-07-20T09:34:46;6.18;;;3.83;;
70153;SDS011;57519;51.494;-2.626;2023-07-20T09:37:11;5.80;;;4.00;;
70153;SDS011;57519;51.494;-2.626;2023-07-20T09:39:46;7.33;;;4.23;;
70153;SDS011;57519;51.494;-2.626;2023-07-20T09:42:12;7.57;;;4.25;;
70153;SDS011;57519;51.494;-2.626;2023-07-20T09:44:38;7.22;;;4.13;;
70153;SDS011;57519;51.494;-2.626;2023-07-20T09:47:04;5.95;;;3.80;;
70153;SDS011;57519;51.494;-2.626;2023-07-20T09:49:30;5.50;;;3.40;;
70153;SDS011;57519;51.494;-2.626;2023-07-20T09:51:56;5.67;;;3.70;;
70153;SDS011;57519;51.494;-2.626;2023-07-20T09:54:25;7.90;;;4.05;;
70153;SDS011;57519;51.494;-2.626;2023-07-20T09:56:52;5.88;;;3.67;;
70153;SDS011;57519;51.494;-2.626;2023-07-20T09:59:18;5.97;;;3.53;;
70153;SDS011;57519;51.494;-2.626;2023-07-20T10:01:44;6.30;;;3.60;;
70153;SDS011;57519;51.494;-2.626;2023-07-20T10:04:11;5.78;;;3.67;;
70153;SDS011;57519;51.494;-2.626;2023-07-20T10:06:39;4.80;;;3.42;;
70153;SDS011;57519;51.494;-2.626;2023-07-20T10:09:07;5.73;;;3.97;;
70153;SDS011;57519;51.494;-2.626;2023-07-20T10:11:36;5.75;;;3.63;;
70153;SDS011;57519;51.494;-2.626;2023-07-20T10:14:04;5.80;;;3.05;;
70153;SDS011;57519;51.494;-2.626;2023-07-20T10:16:36;7.97;;;3.38;;
70153;SDS011;57519;51.494;-2.626;2023-07-20T10:22:15;8.90;;;3.43;;
70153;SDS011;57519;51.494;-2.626;2023-07-20T10:24:45;5.85;;;2.92;;
70153;SDS011;57519;51.494;-2.626;2023-07-20T10:27:12;4.85;;;2.88;;
70153;SDS011;57519;51.494;-2.626;2023-07-20T10:29:39;6.55;;;3.20;;
70153;SDS011;57519;51.494;-2.626;2023-07-20T10:32:06;5.35;;;3.20;;
70153;SDS011;57519;51.494;-2.626;2023-07-20T10:34:33;6.23;;;3.30;;
70153;SDS011;57519;51.494;-2.626;2023-07-20T10:36:58;5.00;;;3.17;;
70153;SDS011;57519;51.494;-2.626;2023-07-20T10:39:25;4.23;;;2.83;;
70153;SDS011;57519;51.494;-2.626;2023-07-20T10:42:08;5.20;;;2.50;;
70153;SDS011;57519;51.494;-2.626;2023-07-20T10:44:39;4.05;;;2.40;;
70153;SDS011;57519;51.494;-2.626;2023-07-20T10:47:09;4.45;;;2.75;;
70153;SDS011;57519;51.494;-2.626;2023-07-20T10:49:35;6.43;;;3.40;;
70153;SDS011;57519;51.494;-2.626;2023-07-20T10:52:20;4.77;;;2.50;;
70153;SDS011;57519;51.494;-2.626;2023-07-20T10:54:49;4.97;;;3.00;;
70153;SDS011;57519;51.494;-2.626;2023-07-20T10:57:22;4.53;;;2.20;;
70153;SDS011;57519;51.494;-2.626;2023-07-20T10:59:49;5.18;;;2.90;;
70153;SDS011;57519;51.494;-2.626;2023-07-20T11:02:17;5.70;;;3.03;;
70153;SDS011;57519;51.494;-2.626;2023-07-20T11:04:44;13.05;;;5.13;;
70153;SDS011;57519;51.494;-2.626;2023-07-20T11:07:14;5.63;;;3.20;;
70153;SDS011;57519;51.494;-2.626;2023-07-20T11:09:41;6.07;;;2.85;;
70153;SDS011;57519;51.494;-2.626;2023-07-20T11:14:57;5.60;;;2.90;;
70153;SDS011;57519;51.494;-2.626;2023-07-20T11:17:30;5.88;;;2.90;;
70153;SDS011;57519;51.494;-2.626;2023-07-20T11:19:56;5.95;;;3.00;;
70153;SDS011;57519;51.494;-2.626;2023-07-20T11:22:23;5.22;;;2.88;;
70153;SDS011;57519;51.494;-2.626;2023-07-20T11:24:49;4.27;;;3.03;;
70153;SDS011;57519;51.494;-2.626;2023-07-20T11:27:15;6.45;;;3.05;;
70153;SDS011;57519;51.494;-2.626;2023-07-20T11:29:41;6.67;;;2.90;;
70153;SDS011;57519;51.494;-2.626;2023-07-20T11:32:06;5.10;;;2.83;;
70153;SDS011;57519;51.494;-2.626;2023-07-20T11:34:33;4.73;;;3.00;;
70153;SDS011;57519;51.494;-2.626;2023-07-20T11:37:00;4.57;;;2.92;;
70153;SDS011;57519;51.494;-2.626;2023-07-20T11:39:26;4.32;;;2.58;;
70153;SDS011;57519;51.494;-2.626;2023-07-20T11:41:56;5.03;;;2.92;;
70153;SDS011;57519;51.494;-2.626;2023-07-20T11:44:23;6.00;;;3.33;;
70153;SDS011;57519;51.494;-2.626;2023-07-20T11:47:03;7.50;;;3.53;;
70153;SDS011;57519;51.494;-2.626;2023-07-20T11:49:37;6.38;;;3.20;;
70153;SDS011;57519;51.494;-2.626;2023-07-20T11:52:14;4.68;;;2.45;;
70153;SDS011;57519;51.494;-2.626;2023-07-20T11:54:41;4.53;;;2.60;;
70153;SDS011;57519;51.494;-2.626;2023-07-20T11:57:07;5.77;;;2.57;;
70153;SDS011;57519;51.494;-2.626;2023-07-20T11:59:52;5.40;;;2.13;;
70153;SDS011;57519;51.494;-2.626;2023-07-20T12:02:29;6.93;;;2.58;;
70153;SDS011;57519;51.494;-2.626;2023-07-20T12:04:56;7.15;;;2.75;;
70153;SDS011;57519;51.494;-2.626;2023-07-20T12:07:22;4.93;;;3.10;;
70153;SDS011;57519;51.494;-2.626;2023-07-20T12:10:07;6.07;;;2.90;;
70153;SDS011;57519;51.494;-2.626;2023-07-20T12:12:34;7.93;;;3.40;;
70153;SDS011;57519;51.494;-2.626;2023-07-20T12:15:12;5.38;;;2.60;;
70153;SDS011;57519;51.494;-2.626;2023-07-20T12:17:42;4.13;;;2.55;;
70153;SDS011;57519;51.494;-2.626;2023-07-20T12:20:11;5.30;;;2.95;;
70153;SDS011;57519;51.494;-2.626;2023-07-20T12:22:40;7.50;;;3.70;;
70153;SDS011;57519;51.494;-2.626;2023-07-20T12:25:08;6.45;;;3.63;;
70153;SDS011;57519;51.494;-2.626;2023-07-20T12:27:37;7.35;;;3.20;;
70153;SDS011;57519;51.494;-2.626;2023-07-20T12:30:06;4.20;;;2.85;;
70153;SDS011;57519;51.494;-2.626;2023-07-20T12:32:32;7.60;;;3.92;;
70153;SDS011;57519;51.494;-2.626;2023-07-20T12:34:58;5.50;;;3.10;;
70153;SDS011;57519;51.494;-2.626;2023-07-20T12:37:25;5.95;;;3.10;;
70153;SDS011;57519;51.494;-2.626;2023-07-20T12:39:51;5.65;;;3.50;;
70153;SDS011;57519;51.494;-2.626;2023-07-20T12:42:17;6.17;;;3.80;;
70153;SDS011;57519;51.494;-2.626;2023-07-20T12:44:42;5.27;;;2.80;;
70153;SDS011;57519;51.494;-2.626;2023-07-20T12:47:07;7.18;;;3.90;;
70153;SDS011;57519;51.494;-2.626;2023-07-20T12:49:33;4.83;;;3.30;;
70153;SDS011;57519;51.494;-2.626;2023-07-20T12:51:58;6.60;;;3.40;;
70153;SDS011;57519;51.494;-2.626;2023-07-20T12:54:24;9.10;;;4.50;;
70153;SDS011;57519;51.494;-2.626;2023-07-20T12:56:49;6.68;;;3.58;;
70153;SDS011;57519;51.494;-2.626;2023-07-20T12:59:15;5.90;;;3.63;;
70153;SDS011;57519;51.494;-2.626;2023-07-20T13:01:40;5.17;;;3.03;;
70153;SDS011;57519;51.494;-2.626;2023-07-20T13:04:06;9.07;;;4.97;;
70153;SDS011;57519;51.494;-2.626;2023-07-20T13:06:35;7.18;;;3.97;;
70153;SDS011;57519;51.494;-2.626;2023-07-20T13:09:01;7.57;;;4.30;;
70153;SDS011;57519;51.494;-2.626;2023-07-20T13:11:28;6.30;;;4.10;;
70153;SDS011;57519;51.494;-2.626;2023-07-20T13:13:56;6.03;;;3.83;;
70153;SDS011;57519;51.494;-2.626;2023-07-20T13:16:22;7.55;;;4.38;;
70153;SDS011;57519;51.494;-2.626;2023-07-20T13:18:47;6.70;;;3.93;;
70153;SDS011;57519;51.494;-2.626;2023-07-20T13:21:13;6.47;;;4.50;;
70153;SDS011;57519;51.494;-2.626;2023-07-20T13:23:39;7.63;;;4.70;;
70153;SDS011;57519;51.494;-2.626;2023-07-20T13:26:04;6.87;;;4.13;;
70153;SDS011;57519;51.494;-2.626;2023-07-20T13:28:30;7.35;;;4.50;;
70153;SDS011;57519;51.494;-2.626;2023-07-20T13:30:55;6.80;;;4.23;;
70153;SDS011;57519;51.494;-2.626;2023-07-20T13:33:21;6.90;;;3.67;;
70153;SDS011;57519;51.494;-2.626;2023-07-20T13:35:46;8.23;;;4.43;;
70153;SDS011;57519;51.494;-2.626;2023-07-20T13:38:12;5.73;;;3.97;;
70153;SDS011;57519;51.494;-2.626;2023-07-20T13:40:37;5.93;;;4.50;;
70153;SDS011;57519;51.494;-2.626;2023-07-20T13:43:03;9.10;;;4.73;;
70153;SDS011;57519;51.494;-2.626;2023-07-20T13:45:28;6.53;;;4.00;;
70153;SDS011;57519;51.494;-2.626;2023-07-20T13:47:54;6.23;;;4.30;;
70153;SDS011;57519;51.494;-2.626;2023-07-20T13:50:19;7.53;;;4.65;;
70153;SDS011;57519;51.494;-2.626;2023-07-20T13:52:45;8.60;;;4.40;;
70153;SDS011;57519;51.494;-2.626;2023-07-20T13:55:10;6.20;;;4.32;;
70153;SDS011;57519;51.494;-2.626;2023-07-20T13:57:36;5.83;;;4.33;;
70153;SDS011;57519;51.494;-2.626;2023-07-20T14:00:02;8.87;;;4.80;;
70153;SDS011;57519;51.494;-2.626;2023-07-20T14:02:28;7.60;;;4.03;;
70153;SDS011;57519;51.494;-2.626;2023-07-20T14:04:54;6.33;;;4.20;;
70153;SDS011;57519;51.494;-2.626;2023-07-20T14:07:20;7.65;;;4.15;;
70153;SDS011;57519;51.494;-2.626;2023-07-20T14:09:46;7.53;;;4.70;;
70153;SDS011;57519;51.494;-2.626;2023-07-20T14:12:12;6.88;;;3.42;;
70153;SDS011;57519;51.494;-2.626;2023-07-20T14:14:39;7.82;;;3.83;;
70153;SDS011;57519;51.494;-2.626;2023-07-20T14:17:06;6.43;;;3.42;;
70153;SDS011;57519;51.494;-2.626;2023-07-20T14:19:32;8.60;;;3.93;;
70153;SDS011;57519;51.494;-2.626;2023-07-20T14:21:57;5.93;;;3.15;;
70153;SDS011;57519;51.494;-2.626;2023-07-20T14:24:24;5.78;;;3.38;;
70153;SDS011;57519;51.494;-2.626;2023-07-20T14:26:52;6.67;;;3.87;;
70153;SDS011;57519;51.494;-2.626;2023-07-20T14:29:19;7.30;;;3.40;;
70153;SDS011;57519;51.494;-2.626;2023-07-20T14:31:45;11.13;;;3.80;;
70153;SDS011;57519;51.494;-2.626;2023-07-20T14:34:13;7.07;;;3.45;;
70153;SDS011;57519;51.494;-2.626;2023-07-20T14:36:39;7.15;;;4.00;;
70153;SDS011;57519;51.494;-2.626;2023-07-20T14:39:05;6.33;;;3.83;;
70153;SDS011;57519;51.494;-2.626;2023-07-20T14:41:30;10.63;;;4.22;;
70153;SDS011;57519;51.494;-2.626;2023-07-20T14:43:56;8.37;;;4.30;;
70153;SDS011;57519;51.494;-2.626;2023-07-20T14:46:21;8.07;;;4.00;;